sensor_id;sensor_type;location;lat;lon;timestamp;pressure;altitude;pressure_sealevel;temperature;humidity
84511;BME280;74730;43.858;18.424;2024-01-27T00:01:11;96262.47;;;3.03;74.11
84511;BME280;74730;43.858;18.424;2024-01-27T00:03:36;96279.72;;;2.90;74.83
84511;BME280;74730;43.858;18.424;2024-01-27T00:06:02;96283.81;;;2.81;74.46
84511;BME280;74730;43.858;18.424;2024-01-27T00:08:27;96298.56;;;2.78;74.61
84511;BME280;74730;43.858;18.424;2024-01-27T00:10:53;96315.25;;;2.82;75.16
84511;BME280;74730;43.858;18.424;2024-01-27T00:13:19;96321.97;;;2.83;75.63
84511;BME280;74730;43.858;18.424;2024-01-27T00:15:44;96334.72;;;2.83;75.40
84511;BME280;74730;43.858;18.424;2024-01-27T00:18:10;96342.38;;;2.83;75.59
84511;BME280;74730;43.858;18.424;2024-01-27T00:20:36;96353.69;;;2.90;75.29
84511;BME280;74730;43.858;18.424;2024-01-27T00:23:03;96336.53;;;2.92;75.28
84511;BME280;74730;43.858;18.424;2024-01-27T00:25:29;96347.94;;;2.88;75.10
84511;BME280;74730;43.858;18.424;2024-01-27T00:27:54;96352.06;;;2.89;74.61
84511;BME280;74730;43.858;18.424;2024-01-27T00:30:20;96370.88;;;2.88;75.38
84511;BME280;74730;43.858;18.424;2024-01-27T00:32:46;96361.50;;;2.88;75.30
84511;BME280;74730;43.858;18.424;2024-01-27T00:35:11;96370.88;;;2.88;75.22
84511;BME280;74730;43.858;18.424;2024-01-27T00:37:40;96388.25;;;2.94;75.34
84511;BME280;74730;43.858;18.424;2024-01-27T00:40:12;96388.03;;;2.97;75.53
84511;BME280;74730;43.858;18.424;2024-01-27T00:42:38;96410.75;;;3.00;75.26
84511;BME280;74730;43.858;18.424;2024-01-27T00:45:04;96419.09;;;3.02;75.47
84511;BME280;74730;43.858;18.424;2024-01-27T00:47:30;96418.28;;;3.01;75.78
84511;BME280;74730;43.858;18.424;2024-01-27T00:49:56;96412.38;;;3.01;75.34
84511;BME280;74730;43.858;18.424;2024-01-27T00:52:22;96413.63;;;3.06;75.52
84511;BME280;74730;43.858;18.424;2024-01-27T00:54:47;96415.81;;;3.11;75.65
84511;BME280;74730;43.858;18.424;2024-01-27T00:57:13;96393.31;;;3.05;75.21
84511;BME280;74730;43.858;18.424;2024-01-27T00:59:39;96379.09;;;3.02;75.25
84511;BME280;74730;43.858;18.424;2024-01-27T01:02:04;96326.19;;;2.93;75.36
84511;BME280;74730;43.858;18.424;2024-01-27T01:04:30;96305.72;;;2.84;76.12
84511;BME280;74730;43.858;18.424;2024-01-27T01:06:55;96330.63;;;2.59;77.43
84511;BME280;74730;43.858;18.424;2024-01-27T01:09:21;96320.31;;;2.61;77.28
84511;BME280;74730;43.858;18.424;2024-01-27T01:11:47;96321.59;;;2.55;77.70
84511;BME280;74730;43.858;18.424;2024-01-27T01:14:12;96316.00;;;2.61;77.81
84511;BME280;74730;43.858;18.424;2024-01-27T01:16:39;96317.97;;;2.58;77.38
84511;BME280;74730;43.858;18.424;2024-01-27T01:19:05;96312.22;;;2.56;78.00
84511;BME280;74730;43.858;18.424;2024-01-27T01:21:30;96297.47;;;2.59;77.99
84511;BME280;74730;43.858;18.424;2024-01-27T01:23:56;96277.16;;;2.69;77.29
84511;BME280;74730;43.858;18.424;2024-01-27T01:26:22;96262.56;;;2.60;77.41
84511;BME280;74730;43.858;18.424;2024-01-27T01:28:47;96269.41;;;2.59;78.36
84511;BME280;74730;43.858;18.424;2024-01-27T01:31:13;96259.69;;;2.53;77.98
84511;BME280;74730;43.858;18.424;2024-01-27T01:33:38;96250.31;;;2.54;78.63
84511;BME280;74730;43.858;18.424;2024-01-27T01:36:04;96239.53;;;2.50;78.34
84511;BME280;74730;43.858;18.424;2024-01-27T01:38:30;96237.44;;;2.55;77.95
84511;BME280;74730;43.858;18.424;2024-01-27T01:40:56;96243.91;;;2.59;78.39
84511;BME280;74730;43.858;18.424;2024-01-27T01:43:21;96240.44;;;2.60;78.55
84511;BME280;74730;43.858;18.424;2024-01-27T01:45:47;96235.44;;;2.59;78.69
84511;BME280;74730;43.858;18.424;2024-01-27T01:48:12;96238.88;;;2.69;78.69
84511;BME280;74730;43.858;18.424;2024-01-27T01:50:38;96227.88;;;2.68;78.21
84511;BME280;74730;43.858;18.424;2024-01-27T01:53:05;96222.78;;;2.68;78.19
84511;BME280;74730;43.858;18.424;2024-01-27T01:55:31;96226.13;;;2.69;78.23
84511;BME280;74730;43.858;18.424;2024-01-27T01:57:57;96221.41;;;2.64;78.17
84511;BME280;74730;43.858;18.424;2024-01-27T02:00:22;96222.31;;;2.63;78.11
84511;BME280;74730;43.858;18.424;2024-01-27T02:02:48;96224.78;;;2.65;78.34
84511;BME280;74730;43.858;18.424;2024-01-27T02:05:13;96221.41;;;2.64;78.28
84511;BME280;74730;43.858;18.424;2024-01-27T02:07:39;96222.81;;;2.57;79.24
84511;BME280;74730;43.858;18.424;2024-01-27T02:10:13;96216.50;;;2.52;79.08
84511;BME280;74730;43.858;18.424;2024-01-27T02:12:39;96219.44;;;2.57;79.27
84511;BME280;74730;43.858;18.424;2024-01-27T02:15:09;96207.13;;;2.62;78.67
84511;BME280;74730;43.858;18.424;2024-01-27T02:17:35;96204.16;;;2.57;78.93
84511;BME280;74730;43.858;18.424;2024-01-27T02:20:00;96211.94;;;2.55;79.45
84511;BME280;74730;43.858;18.424;2024-01-27T02:22:26;96208.69;;;2.53;79.00
84511;BME280;74730;43.858;18.424;2024-01-27T02:24:51;96210.31;;;2.54;80.04
84511;BME280;74730;43.858;18.424;2024-01-27T02:27:17;96207.50;;;2.57;79.00
84511;BME280;74730;43.858;18.424;2024-01-27T02:29:42;96200.44;;;2.61;79.57
84511;BME280;74730;43.858;18.424;2024-01-27T02:32:09;96206.31;;;2.61;78.85
84511;BME280;74730;43.858;18.424;2024-01-27T02:34:34;96217.22;;;2.63;79.12
84511;BME280;74730;43.858;18.424;2024-01-27T02:37:00;96217.94;;;2.65;79.24
84511;BME280;74730;43.858;18.424;2024-01-27T02:39:25;96219.91;;;2.62;78.44
84511;BME280;74730;43.858;18.424;2024-01-27T02:41:51;96215.88;;;2.59;78.73
84511;BME280;74730;43.858;18.424;2024-01-27T02:44:16;96224.00;;;2.53;78.55
84511;BME280;74730;43.858;18.424;2024-01-27T02:46:42;96220.88;;;2.50;79.48
84511;BME280;74730;43.858;18.424;2024-01-27T02:49:09;96220.41;;;2.56;79.21
84511;BME280;74730;43.858;18.424;2024-01-27T02:51:35;96217.28;;;2.52;79.28
84511;BME280;74730;43.858;18.424;2024-01-27T02:54:00;96208.47;;;2.56;79.70
84511;BME280;74730;43.858;18.424;2024-01-27T02:56:26;96203.91;;;2.60;79.67
84511;BME280;74730;43.858;18.424;2024-01-27T02:58:51;96210.75;;;2.59;79.17
84511;BME280;74730;43.858;18.424;2024-01-27T03:01:17;96219.78;;;2.63;79.30
84511;BME280;74730;43.858;18.424;2024-01-27T03:03:42;96205.03;;;2.67;79.06
84511;BME280;74730;43.858;18.424;2024-01-27T03:06:08;96226.25;;;2.67;78.80
84511;BME280;74730;43.858;18.424;2024-01-27T03:08:33;96225.63;;;2.75;78.94
84511;BME280;74730;43.858;18.424;2024-01-27T03:10:59;96215.63;;;2.83;78.96
84511;BME280;74730;43.858;18.424;2024-01-27T03:13:24;96240.31;;;2.83;79.20
84511;BME280;74730;43.858;18.424;2024-01-27T03:15:50;96242.19;;;2.81;79.13
84511;BME280;74730;43.858;18.424;2024-01-27T03:18:17;96250.53;;;2.83;79.59
84511;BME280;74730;43.858;18.424;2024-01-27T03:20:43;96266.50;;;2.85;79.34
84511;BME280;74730;43.858;18.424;2024-01-27T03:23:11;96293.16;;;2.92;79.05
84511;BME280;74730;43.858;18.424;2024-01-27T03:25:37;96279.66;;;3.01;78.63
84511;BME280;74730;43.858;18.424;2024-01-27T03:28:03;96318.50;;;3.04;78.26
84511;BME280;74730;43.858;18.424;2024-01-27T03:30:28;96346.47;;;3.06;77.76
84511;BME280;74730;43.858;18.424;2024-01-27T03:32:54;96340.97;;;3.10;77.91
84511;BME280;74730;43.858;18.424;2024-01-27T03:35:19;96356.97;;;3.12;77.88
84511;BME280;74730;43.858;18.424;2024-01-27T03:37:45;96388.41;;;3.13;77.66
84511;BME280;74730;43.858;18.424;2024-01-27T03:40:11;96375.44;;;3.16;77.73
84511;BME280;74730;43.858;18.424;2024-01-27T03:42:37;96392.66;;;3.24;77.12
84511;BME280;74730;43.858;18.424;2024-01-27T03:45:02;96384.91;;;3.25;76.63
84511;BME280;74730;43.858;18.424;2024-01-27T03:47:28;96374.47;;;3.17;76.78
84511;BME280;74730;43.858;18.424;2024-01-27T03:49:54;96390.41;;;3.09;77.79
84511;BME280;74730;43.858;18.424;2024-01-27T03:52:19;96399.91;;;3.07;77.33
84511;BME280;74730;43.858;18.424;2024-01-27T03:54:45;96425.31;;;3.09;78.01
84511;BME280;74730;43.858;18.424;2024-01-27T03:57:11;96453.16;;;3.12;78.13
84511;BME280;74730;43.858;18.424;2024-01-27T03:59:36;96461.72;;;3.22;78.40
84511;BME280;74730;43.858;18.424;2024-01-27T04:02:02;96445.00;;;3.29;78.09
84511;BME280;74730;43.858;18.424;2024-01-27T04:04:27;96478.41;;;3.26;77.73
84511;BME280;74730;43.858;18.424;2024-01-27T04:06:53;96490.25;;;3.27;77.22
84511;BME280;74730;43.858;18.424;2024-01-27T04:09:18;96500.22;;;3.30;77.17
84511;BME280;74730;43.858;18.424;2024-01-27T04:11:44;96502.19;;;3.38;76.25
84511;BME280;74730;43.858;18.424;2024-01-27T04:14:09;96504.47;;;3.41;76.48
84511;BME280;74730;43.858;18.424;2024-01-27T04:16:35;96501.25;;;3.39;76.60
84511;BME280;74730;43.858;18.424;2024-01-27T04:19:00;96487.09;;;3.35;77.40
84511;BME280;74730;43.858;18.424;2024-01-27T04:21:26;96488.16;;;3.32;76.90
84511;BME280;74730;43.858;18.424;2024-01-27T04:23:52;96490.00;;;3.30;76.64
84511;BME280;74730;43.858;18.424;2024-01-27T04:26:17;96494.69;;;3.25;77.04
84511;BME280;74730;43.858;18.424;2024-01-27T04:28:43;96514.41;;;3.23;77.02
84511;BME280;74730;43.858;18.424;2024-01-27T04:31:08;96506.63;;;3.25;77.16
84511;BME280;74730;43.858;18.424;2024-01-27T04:33:34;96517.66;;;3.25;76.92
84511;BME280;74730;43.858;18.424;2024-01-27T04:36:00;96530.84;;;3.30;77.02
84511;BME280;74730;43.858;18.424;2024-01-27T04:38:25;96524.00;;;3.31;76.03
84511;BME280;74730;43.858;18.424;2024-01-27T04:40:51;96521.44;;;3.31;76.45
84511;BME280;74730;43.858;18.424;2024-01-27T04:43:17;96519.97;;;3.28;76.63
84511;BME280;74730;43.858;18.424;2024-01-27T04:45:43;96521.13;;;3.24;76.21
84511;BME280;74730;43.858;18.424;2024-01-27T04:48:12;96520.31;;;3.24;76.74
84511;BME280;74730;43.858;18.424;2024-01-27T04:50:38;96527.88;;;3.25;76.50
84511;BME280;74730;43.858;18.424;2024-01-27T04:53:04;96516.03;;;3.24;76.30
84511;BME280;74730;43.858;18.424;2024-01-27T04:55:29;96523.47;;;3.16;77.03
84511;BME280;74730;43.858;18.424;2024-01-27T04:57:55;96542.63;;;3.10;77.26
84511;BME280;74730;43.858;18.424;2024-01-27T05:00:20;96553.06;;;3.07;77.45
84511;BME280;74730;43.858;18.424;2024-01-27T05:02:46;96553.06;;;3.07;76.86
84511;BME280;74730;43.858;18.424;2024-01-27T05:05:12;96559.56;;;3.11;77.28
84511;BME280;74730;43.858;18.424;2024-01-27T05:07:38;96569.53;;;3.03;77.64
84511;BME280;74730;43.858;18.424;2024-01-27T05:10:04;96562.84;;;2.91;77.88
84511;BME280;74730;43.858;18.424;2024-01-27T05:12:30;96570.25;;;2.83;77.86
84511;BME280;74730;43.858;18.424;2024-01-27T05:14:56;96578.47;;;2.64;77.80
84511;BME280;74730;43.858;18.424;2024-01-27T05:17:21;96589.13;;;2.58;78.63
84511;BME280;74730;43.858;18.424;2024-01-27T05:19:47;96600.59;;;2.42;79.70
84511;BME280;74730;43.858;18.424;2024-01-27T05:22:13;96603.25;;;2.29;79.68
84511;BME280;74730;43.858;18.424;2024-01-27T05:24:38;96604.81;;;2.19;80.48
84511;BME280;74730;43.858;18.424;2024-01-27T05:27:04;96606.31;;;2.10;80.63
84511;BME280;74730;43.858;18.424;2024-01-27T05:29:29;96611.34;;;1.99;80.79
84511;BME280;74730;43.858;18.424;2024-01-27T05:31:55;96617.09;;;1.90;82.17
84511;BME280;74730;43.858;18.424;2024-01-27T05:34:20;96619.97;;;1.86;81.57
84511;BME280;74730;43.858;18.424;2024-01-27T05:36:47;96626.44;;;1.78;82.81
84511;BME280;74730;43.858;18.424;2024-01-27T05:39:13;96636.13;;;1.73;82.32
84511;BME280;74730;43.858;18.424;2024-01-27T05:41:39;96628.31;;;1.64;82.70
84511;BME280;74730;43.858;18.424;2024-01-27T05:44:04;96641.38;;;1.59;82.51
84511;BME280;74730;43.858;18.424;2024-01-27T05:46:32;96623.97;;;1.53;82.60
84511;BME280;74730;43.858;18.424;2024-01-27T05:48:57;96629.06;;;1.53;83.33
84511;BME280;74730;43.858;18.424;2024-01-27T05:51:28;96631.72;;;1.52;84.12
84511;BME280;74730;43.858;18.424;2024-01-27T05:53:53;96622.56;;;1.49;84.12
84511;BME280;74730;43.858;18.424;2024-01-27T05:56:19;96626.25;;;1.45;84.00
84511;BME280;74730;43.858;18.424;2024-01-27T05:58:48;96627.25;;;1.43;84.65
84511;BME280;74730;43.858;18.424;2024-01-27T06:01:14;96636.84;;;1.39;84.32
84511;BME280;74730;43.858;18.424;2024-01-27T06:03:43;96632.16;;;1.33;84.07
84511;BME280;74730;43.858;18.424;2024-01-27T06:06:09;96626.16;;;1.34;84.69
84511;BME280;74730;43.858;18.424;2024-01-27T06:08:35;96639.47;;;1.38;84.28
84511;BME280;74730;43.858;18.424;2024-01-27T06:11:00;96645.63;;;1.35;84.46
84511;BME280;74730;43.858;18.424;2024-01-27T06:13:26;96637.25;;;1.33;84.45
84511;BME280;74730;43.858;18.424;2024-01-27T06:15:51;96633.81;;;1.34;83.88
84511;BME280;74730;43.858;18.424;2024-01-27T06:18:17;96653.66;;;1.29;83.85
84511;BME280;74730;43.858;18.424;2024-01-27T06:20:44;96668.84;;;1.30;84.45
84511;BME280;74730;43.858;18.424;2024-01-27T06:23:10;96666.19;;;1.32;84.12
84511;BME280;74730;43.858;18.424;2024-01-27T06:25:36;96669.44;;;1.34;84.92
84511;BME280;74730;43.858;18.424;2024-01-27T06:28:01;96675.03;;;1.39;84.86
84511;BME280;74730;43.858;18.424;2024-01-27T06:30:27;96677.25;;;1.44;84.99
84511;BME280;74730;43.858;18.424;2024-01-27T06:32:52;96685.41;;;1.49;84.11
84511;BME280;74730;43.858;18.424;2024-01-27T06:35:18;96690.91;;;1.55;84.44
84511;BME280;74730;43.858;18.424;2024-01-27T06:37:43;96696.50;;;1.60;84.01
84511;BME280;74730;43.858;18.424;2024-01-27T06:40:09;96692.59;;;1.67;83.74
84511;BME280;74730;43.858;18.424;2024-01-27T06:42:35;96699.69;;;1.75;84.00
84511;BME280;74730;43.858;18.424;2024-01-27T06:45:01;96714.66;;;1.79;83.46
84511;BME280;74730;43.858;18.424;2024-01-27T06:47:27;96727.88;;;1.85;83.01
84511;BME280;74730;43.858;18.424;2024-01-27T06:49:52;96712.22;;;2.02;82.40
84511;BME280;74730;43.858;18.424;2024-01-27T06:52:18;96711.97;;;2.17;81.66
84511;BME280;74730;43.858;18.424;2024-01-27T06:54:44;96717.56;;;2.22;80.88
84511;BME280;74730;43.858;18.424;2024-01-27T06:59:49;96720.00;;;2.24;81.13
84511;BME280;74730;43.858;18.424;2024-01-27T07:02:27;96712.38;;;2.24;80.95
84511;BME280;74730;43.858;18.424;2024-01-27T07:04:54;96715.50;;;2.28;80.82
84511;BME280;74730;43.858;18.424;2024-01-27T07:07:23;96728.84;;;2.31;80.32
84511;BME280;74730;43.858;18.424;2024-01-27T07:09:51;96732.47;;;2.40;80.83
84511;BME280;74730;43.858;18.424;2024-01-27T07:12:17;96726.94;;;2.46;79.92
84511;BME280;74730;43.858;18.424;2024-01-27T07:14:42;96723.00;;;2.53;79.88
84511;BME280;74730;43.858;18.424;2024-01-27T07:17:08;96721.53;;;2.61;79.63
84511;BME280;74730;43.858;18.424;2024-01-27T07:19:33;96736.06;;;2.72;79.32
84511;BME280;74730;43.858;18.424;2024-01-27T07:21:59;96734.38;;;2.84;78.45
84511;BME280;74730;43.858;18.424;2024-01-27T07:24:29;96737.66;;;2.97;77.90
84511;BME280;74730;43.858;18.424;2024-01-27T07:26:55;96743.56;;;2.97;77.92
84511;BME280;74730;43.858;18.424;2024-01-27T07:29:20;96733.69;;;2.93;78.35
84511;BME280;74730;43.858;18.424;2024-01-27T07:31:46;96751.09;;;2.99;77.91
84511;BME280;74730;43.858;18.424;2024-01-27T07:34:12;96758.34;;;3.16;77.43
84511;BME280;74730;43.858;18.424;2024-01-27T07:36:37;96752.06;;;3.31;77.05
84511;BME280;74730;43.858;18.424;2024-01-27T07:39:03;96748.84;;;3.51;75.78
84511;BME280;74730;43.858;18.424;2024-01-27T07:41:30;96753.13;;;3.62;75.25
84511;BME280;74730;43.858;18.424;2024-01-27T07:43:56;96756.63;;;3.61;75.02
84511;BME280;74730;43.858;18.424;2024-01-27T07:46:21;96763.00;;;3.67;75.06
84511;BME280;74730;43.858;18.424;2024-01-27T07:48:48;96761.50;;;3.75;75.07
84511;BME280;74730;43.858;18.424;2024-01-27T07:51:15;96766.75;;;3.85;74.58
84511;BME280;74730;43.858;18.424;2024-01-27T07:53:41;96770.91;;;3.97;73.83
84511;BME280;74730;43.858;18.424;2024-01-27T07:56:07;96769.63;;;4.03;73.71
84511;BME280;74730;43.858;18.424;2024-01-27T07:58:33;96764.00;;;4.09;73.22
84511;BME280;74730;43.858;18.424;2024-01-27T08:00:59;96778.09;;;3.92;73.72
84511;BME280;74730;43.858;18.424;2024-01-27T08:03:25;96776.59;;;4.00;73.71
84511;BME280;74730;43.858;18.424;2024-01-27T08:05:51;96789.63;;;3.75;74.22
84511;BME280;74730;43.858;18.424;2024-01-27T08:08:16;96786.13;;;3.65;74.26
84511;BME280;74730;43.858;18.424;2024-01-27T08:10:42;96789.75;;;3.85;74.12
84511;BME280;74730;43.858;18.424;2024-01-27T08:13:07;96796.09;;;3.90;74.04
84511;BME280;74730;43.858;18.424;2024-01-27T08:15:33;96790.63;;;4.06;73.42
84511;BME280;74730;43.858;18.424;2024-01-27T08:17:58;96793.88;;;4.30;72.77
84511;BME280;74730;43.858;18.424;2024-01-27T08:20:24;96794.94;;;4.60;72.21
84511;BME280;74730;43.858;18.424;2024-01-27T08:22:49;96791.00;;;5.29;69.84
84511;BME280;74730;43.858;18.424;2024-01-27T08:25:18;96784.31;;;5.89;67.36
84511;BME280;74730;43.858;18.424;2024-01-27T08:27:43;96797.56;;;6.43;66.68
84511;BME280;74730;43.858;18.424;2024-01-27T08:30:09;96796.53;;;7.03;64.49
84511;BME280;74730;43.858;18.424;2024-01-27T08:32:36;96804.78;;;7.73;61.16
84511;BME280;74730;43.858;18.424;2024-01-27T08:35:02;96810.25;;;8.34;59.21
84511;BME280;74730;43.858;18.424;2024-01-27T08:37:27;96811.06;;;7.97;58.79
84511;BME280;74730;43.858;18.424;2024-01-27T08:39:53;96813.19;;;8.02;59.46
84511;BME280;74730;43.858;18.424;2024-01-27T08:42:18;96820.22;;;7.73;60.08
84511;BME280;74730;43.858;18.424;2024-01-27T08:44:44;96821.09;;;7.35;60.40
84511;BME280;74730;43.858;18.424;2024-01-27T08:47:09;96828.00;;;7.15;60.96
84511;BME280;74730;43.858;18.424;2024-01-27T08:49:35;96834.09;;;6.85;61.84
84511;BME280;74730;43.858;18.424;2024-01-27T08:52:01;96844.78;;;6.81;63.30
84511;BME280;74730;43.858;18.424;2024-01-27T08:54:26;96846.03;;;6.96;62.42
84511;BME280;74730;43.858;18.424;2024-01-27T08:56:52;96846.81;;;7.06;61.06
84511;BME280;74730;43.858;18.424;2024-01-27T08:59:17;96838.97;;;7.46;60.13
84511;BME280;74730;43.858;18.424;2024-01-27T09:01:43;96840.84;;;8.00;55.64
84511;BME280;74730;43.858;18.424;2024-01-27T09:04:08;96836.34;;;8.39;53.97
84511;BME280;74730;43.858;18.424;2024-01-27T09:06:34;96837.22;;;8.57;53.92
84511;BME280;74730;43.858;18.424;2024-01-27T09:09:00;96841.66;;;8.82;50.84
84511;BME280;74730;43.858;18.424;2024-01-27T09:11:26;96823.69;;;9.08;48.29
84511;BME280;74730;43.858;18.424;2024-01-27T09:13:55;96829.75;;;9.34;46.15
84511;BME280;74730;43.858;18.424;2024-01-27T09:16:21;96826.75;;;9.47;47.26
84511;BME280;74730;43.858;18.424;2024-01-27T09:18:47;96818.25;;;9.55;43.83
84511;BME280;74730;43.858;18.424;2024-01-27T09:21:14;96821.38;;;9.41;40.98
84511;BME280;74730;43.858;18.424;2024-01-27T09:23:46;96804.50;;;9.46;39.69
84511;BME280;74730;43.858;18.424;2024-01-27T09:26:12;96805.78;;;9.68;39.56
84511;BME280;74730;43.858;18.424;2024-01-27T09:28:38;96803.44;;;9.83;39.28
84511;BME280;74730;43.858;18.424;2024-01-27T09:31:10;96798.94;;;9.85;37.31
84511;BME280;74730;43.858;18.424;2024-01-27T09:33:36;96789.03;;;10.06;38.69
84511;BME280;74730;43.858;18.424;2024-01-27T09:36:01;96792.69;;;10.21;40.00
84511;BME280;74730;43.858;18.424;2024-01-27T09:38:28;96794.34;;;10.30;41.13
84511;BME280;74730;43.858;18.424;2024-01-27T09:40:53;96786.28;;;10.41;44.49
84511;BME280;74730;43.858;18.424;2024-01-27T09:43:19;96787.31;;;10.56;44.63
84511;BME280;74730;43.858;18.424;2024-01-27T09:45:45;96777.97;;;10.72;43.73
84511;BME280;74730;43.858;18.424;2024-01-27T09:48:12;96778.28;;;10.68;40.13
84511;BME280;74730;43.858;18.424;2024-01-27T09:50:41;96771.50;;;10.68;41.01
84511;BME280;74730;43.858;18.424;2024-01-27T09:53:06;96768.75;;;10.61;38.18
84511;BME280;74730;43.858;18.424;2024-01-27T09:55:34;96763.25;;;10.56;38.95
84511;BME280;74730;43.858;18.424;2024-01-27T09:58:00;96765.34;;;10.44;37.81
84511;BME280;74730;43.858;18.424;2024-01-27T10:00:27;96764.78;;;10.33;37.43
84511;BME280;74730;43.858;18.424;2024-01-27T10:02:54;96756.38;;;10.22;37.52
84511;BME280;74730;43.858;18.424;2024-01-27T10:05:20;96762.69;;;10.28;37.61
84511;BME280;74730;43.858;18.424;2024-01-27T10:07:46;96748.00;;;10.29;40.88
84511;BME280;74730;43.858;18.424;2024-01-27T10:10:12;96744.63;;;10.28;38.39
84511;BME280;74730;43.858;18.424;2024-01-27T10:12:40;96739.06;;;10.15;39.39
84511;BME280;74730;43.858;18.424;2024-01-27T10:15:18;96741.75;;;9.97;37.64
84511;BME280;74730;43.858;18.424;2024-01-27T10:17:44;96737.84;;;9.85;37.26
84511;BME280;74730;43.858;18.424;2024-01-27T10:20:11;96745.81;;;9.74;37.92
84511;BME280;74730;43.858;18.424;2024-01-27T10:22:42;96737.78;;;9.77;38.65
84511;BME280;74730;43.858;18.424;2024-01-27T10:25:10;96733.59;;;9.76;36.59
84511;BME280;74730;43.858;18.424;2024-01-27T10:27:36;96734.09;;;9.54;35.05
84511;BME280;74730;43.858;18.424;2024-01-27T10:30:02;96727.13;;;9.46;36.05
84511;BME280;74730;43.858;18.424;2024-01-27T10:32:28;96718.91;;;9.43;37.68
84511;BME280;74730;43.858;18.424;2024-01-27T10:35:07;96707.94;;;9.41;36.24
84511;BME280;74730;43.858;18.424;2024-01-27T10:37:38;96711.16;;;9.43;36.61
84511;BME280;74730;43.858;18.424;2024-01-27T10:40:07;96719.19;;;9.40;35.75
84511;BME280;74730;43.858;18.424;2024-01-27T10:42:38;96710.56;;;9.23;34.07
84511;BME280;74730;43.858;18.424;2024-01-27T10:45:04;96707.81;;;9.16;37.58
84511;BME280;74730;43.858;18.424;2024-01-27T10:47:31;96701.44;;;8.85;34.99
84511;BME280;74730;43.858;18.424;2024-01-27T10:49:59;96702.69;;;8.81;36.95
84511;BME280;74730;43.858;18.424;2024-01-27T10:52:29;96702.06;;;8.79;39.75
84511;BME280;74730;43.858;18.424;2024-01-27T10:54:59;96701.00;;;8.72;41.90
84511;BME280;74730;43.858;18.424;2024-01-27T10:57:32;96696.63;;;8.64;42.94
84511;BME280;74730;43.858;18.424;2024-01-27T11:00:00;96692.56;;;8.62;41.88
84511;BME280;74730;43.858;18.424;2024-01-27T11:02:28;96690.34;;;8.67;40.22
84511;BME280;74730;43.858;18.424;2024-01-27T11:04:58;96695.28;;;8.60;38.24
84511;BME280;74730;43.858;18.424;2024-01-27T11:07:25;96692.78;;;8.51;37.28
84511;BME280;74730;43.858;18.424;2024-01-27T11:09:52;96696.31;;;8.50;37.21
84511;BME280;74730;43.858;18.424;2024-01-27T11:12:21;96703.22;;;8.49;36.43
84511;BME280;74730;43.858;18.424;2024-01-27T11:14:48;96697.63;;;8.54;37.65
84511;BME280;74730;43.858;18.424;2024-01-27T11:17:15;96698.44;;;8.54;36.42
84511;BME280;74730;43.858;18.424;2024-01-27T11:19:42;96689.34;;;8.60;38.17
84511;BME280;74730;43.858;18.424;2024-01-27T11:22:08;96677.28;;;8.60;38.54
84511;BME280;74730;43.858;18.424;2024-01-27T11:24:33;96681.75;;;8.58;36.60
84511;BME280;74730;43.858;18.424;2024-01-27T11:27:03;96684.81;;;8.62;37.94
84511;BME280;74730;43.858;18.424;2024-01-27T11:29:29;96684.03;;;8.61;35.27
84511;BME280;74730;43.858;18.424;2024-01-27T11:32:00;96677.91;;;8.62;37.30
84511;BME280;74730;43.858;18.424;2024-01-27T11:34:25;96695.94;;;8.62;35.52
84511;BME280;74730;43.858;18.424;2024-01-27T11:36:51;96691.91;;;8.60;34.22
84511;BME280;74730;43.858;18.424;2024-01-27T11:39:27;96685.13;;;8.59;36.49
84511;BME280;74730;43.858;18.424;2024-01-27T11:42:04;96688.22;;;8.62;35.97
84511;BME280;74730;43.858;18.424;2024-01-27T11:44:30;96692.22;;;8.57;34.86
84511;BME280;74730;43.858;18.424;2024-01-27T11:46:56;96693.00;;;8.57;36.20
84511;BME280;74730;43.858;18.424;2024-01-27T11:49:22;96708.00;;;8.62;35.32
84511;BME280;74730;43.858;18.424;2024-01-27T11:51:48;96684.31;;;8.58;34.24
84511;BME280;74730;43.858;18.424;2024-01-27T11:54:14;96700.81;;;8.48;34.11
84511;BME280;74730;43.858;18.424;2024-01-27T11:56:39;96692.72;;;8.42;34.47
84511;BME280;74730;43.858;18.424;2024-01-27T11:59:05;96693.69;;;8.41;35.21
84511;BME280;74730;43.858;18.424;2024-01-27T12:01:30;96695.28;;;8.25;34.83
84511;BME280;74730;43.858;18.424;2024-01-27T12:03:56;96690.69;;;8.19;34.86
84511;BME280;74730;43.858;18.424;2024-01-27T12:06:22;96681.03;;;8.21;35.04
84511;BME280;74730;43.858;18.424;2024-01-27T12:08:48;96688.50;;;8.24;35.94
84511;BME280;74730;43.858;18.424;2024-01-27T12:11:14;96701.47;;;8.32;36.01
84511;BME280;74730;43.858;18.424;2024-01-27T12:13:40;96691.53;;;8.37;35.64
84511;BME280;74730;43.858;18.424;2024-01-27T12:16:06;96685.28;;;8.39;35.34
84511;BME280;74730;43.858;18.424;2024-01-27T12:18:32;96683.25;;;8.43;36.96
84511;BME280;74730;43.858;18.424;2024-01-27T12:20:58;96682.94;;;8.46;35.50
84511;BME280;74730;43.858;18.424;2024-01-27T12:23:24;96679.25;;;8.49;35.29
84511;BME280;74730;43.858;18.424;2024-01-27T12:25:53;96673.59;;;8.45;35.71
84511;BME280;74730;43.858;18.424;2024-01-27T12:28:19;96657.56;;;8.51;36.50
84511;BME280;74730;43.858;18.424;2024-01-27T12:30:45;96665.84;;;8.63;36.35
84511;BME280;74730;43.858;18.424;2024-01-27T12:33:12;96671.81;;;8.63;36.27
84511;BME280;74730;43.858;18.424;2024-01-27T12:35:38;96659.00;;;8.71;38.71
84511;BME280;74730;43.858;18.424;2024-01-27T12:38:05;96657.72;;;8.75;36.71
84511;BME280;74730;43.858;18.424;2024-01-27T12:40:31;96658.91;;;8.81;38.33
84511;BME280;74730;43.858;18.424;2024-01-27T12:42:57;96661.56;;;8.89;38.71
84511;BME280;74730;43.858;18.424;2024-01-27T12:45:22;96666.09;;;8.95;37.84
84511;BME280;74730;43.858;18.424;2024-01-27T12:47:48;96663.38;;;8.97;37.23
84511;BME280;74730;43.858;18.424;2024-01-27T12:50:14;96661.44;;;8.99;37.22
84511;BME280;74730;43.858;18.424;2024-01-27T12:52:41;96657.41;;;8.96;36.57
84511;BME280;74730;43.858;18.424;2024-01-27T12:55:07;96659.84;;;8.98;36.70
84511;BME280;74730;43.858;18.424;2024-01-27T12:57:33;96654.81;;;8.96;37.00